sensor_id;sensor_type;location;lat;lon;timestamp;P1;durP1;ratioP1;P2;durP2;ratioP2
75169;SDS011;63749;49.186;9.222;2023-12-07T00:01:31;27.83;;;13.00;;
75169;SDS011;63749;49.186;9.222;2023-12-07T00:03:59;24.15;;;12.23;;
75169;SDS011;63749;49.186;9.222;2023-12-07T00:06:24;25.47;;;13.10;;
75169;SDS011;63749;49.186;9.222;2023-12-07T00:08:50;25.30;;;13.43;;
75169;SDS011;63749;49.186;9.222;2023-12-07T00:11:15;30.53;;;14.67;;
75169;SDS011;63749;49.186;9.222;2023-12-07T00:13:40;31.20;;;14.93;;
75169;SDS011;63749;49.186;9.222;2023-12-07T00:16:06;26.48;;;13.25;;
75169;SDS011;63749;49.186;9.222;2023-12-07T00:18:31;26.47;;;13.17;;
75169;SDS011;63749;49.186;9.222;2023-12-07T00:20:57;29.17;;;13.40;;
75169;SDS011;63749;49.186;9.222;2023-12-07T00:23:22;26.23;;;13.57;;
75169;SDS011;63749;49.186;9.222;2023-12-07T00:25:48;29.37;;;13.73;;
75169;SDS011;63749;49.186;9.222;2023-12-07T00:28:14;27.67;;;13.45;;
75169;SDS011;63749;49.186;9.222;2023-12-07T00:30:39;24.70;;;13.20;;
75169;SDS011;63749;49.186;9.222;2023-12-07T00:33:05;27.35;;;13.45;;
75169;SDS011;63749;49.186;9.222;2023-12-07T00:35:31;26.73;;;13.23;;
75169;SDS011;63749;49.186;9.222;2023-12-07T00:37:56;28.93;;;13.57;;
75169;SDS011;63749;49.186;9.222;2023-12-07T00:40:22;26.83;;;13.47;;
75169;SDS011;63749;49.186;9.222;2023-12-07T00:42:48;28.87;;;13.43;;
75169;SDS011;63749;49.186;9.222;2023-12-07T00:45:14;26.33;;;13.00;;
75169;SDS011;63749;49.186;9.222;2023-12-07T00:47:39;26.92;;;13.25;;
75169;SDS011;63749;49.186;9.222;2023-12-07T00:50:05;24.00;;;13.07;;
75169;SDS011;63749;49.186;9.222;2023-12-07T00:52:31;26.00;;;13.73;;
75169;SDS011;63749;49.186;9.222;2023-12-07T00:54:57;28.07;;;14.23;;
75169;SDS011;63749;49.186;9.222;2023-12-07T00:57:22;24.88;;;12.32;;
75169;SDS011;63749;49.186;9.222;2023-12-07T00:59:47;28.87;;;13.30;;
75169;SDS011;63749;49.186;9.222;2023-12-07T01:02:13;28.23;;;13.70;;
75169;SDS011;63749;49.186;9.222;2023-12-07T01:04:38;28.80;;;13.37;;
75169;SDS011;63749;49.186;9.222;2023-12-07T01:07:04;27.15;;;13.30;;
75169;SDS011;63749;49.186;9.222;2023-12-07T01:09:29;25.03;;;13.03;;
75169;SDS011;63749;49.186;9.222;2023-12-07T01:11:54;26.57;;;13.57;;
75169;SDS011;63749;49.186;9.222;2023-12-07T01:14:20;25.43;;;13.33;;
75169;SDS011;63749;49.186;9.222;2023-12-07T01:16:45;28.43;;;13.80;;
75169;SDS011;63749;49.186;9.222;2023-12-07T01:19:11;26.67;;;12.80;;
75169;SDS011;63749;49.186;9.222;2023-12-07T01:21:42;30.10;;;13.13;;
75169;SDS011;63749;49.186;9.222;2023-12-07T01:24:08;33.40;;;13.77;;
75169;SDS011;63749;49.186;9.222;2023-12-07T01:26:33;29.98;;;13.63;;
75169;SDS011;63749;49.186;9.222;2023-12-07T01:28:59;26.10;;;13.03;;
75169;SDS011;63749;49.186;9.222;2023-12-07T01:31:24;27.53;;;13.20;;
75169;SDS011;63749;49.186;9.222;2023-12-07T01:33:49;31.40;;;13.53;;
75169;SDS011;63749;49.186;9.222;2023-12-07T01:36:15;29.15;;;13.32;;
75169;SDS011;63749;49.186;9.222;2023-12-07T01:38:40;27.07;;;13.47;;
75169;SDS011;63749;49.186;9.222;2023-12-07T01:41:06;30.33;;;13.00;;
75169;SDS011;63749;49.186;9.222;2023-12-07T01:43:31;28.50;;;13.30;;
75169;SDS011;63749;49.186;9.222;2023-12-07T01:45:57;27.47;;;13.10;;
75169;SDS011;63749;49.186;9.222;2023-12-07T01:48:23;28.73;;;13.30;;
75169;SDS011;63749;49.186;9.222;2023-12-07T01:50:51;31.15;;;13.95;;
75169;SDS011;63749;49.186;9.222;2023-12-07T01:53:18;28.17;;;13.77;;
75169;SDS011;63749;49.186;9.222;2023-12-07T01:55:46;32.05;;;13.93;;
75169;SDS011;63749;49.186;9.222;2023-12-07T01:58:12;30.80;;;13.40;;
75169;SDS011;63749;49.186;9.222;2023-12-07T02:00:38;30.83;;;13.95;;
75169;SDS011;63749;49.186;9.222;2023-12-07T02:03:04;33.47;;;14.57;;
75169;SDS011;63749;49.186;9.222;2023-12-07T02:05:29;33.95;;;14.45;;
75169;SDS011;63749;49.186;9.222;2023-12-07T02:07:56;35.28;;;15.02;;
75169;SDS011;63749;49.186;9.222;2023-12-07T02:10:21;36.80;;;15.03;;
75169;SDS011;63749;49.186;9.222;2023-12-07T02:12:47;34.77;;;14.97;;
75169;SDS011;63749;49.186;9.222;2023-12-07T02:15:12;40.78;;;15.48;;
75169;SDS011;63749;49.186;9.222;2023-12-07T02:17:41;38.57;;;14.67;;
75169;SDS011;63749;49.186;9.222;2023-12-07T02:23:03;38.95;;;15.10;;
75169;SDS011;63749;49.186;9.222;2023-12-07T02:25:51;42.38;;;15.40;;
75169;SDS011;63749;49.186;9.222;2023-12-07T02:28:17;35.67;;;15.13;;
75169;SDS011;63749;49.186;9.222;2023-12-07T02:30:43;39.55;;;15.93;;
75169;SDS011;63749;49.186;9.222;2023-12-07T02:33:08;35.83;;;14.13;;
75169;SDS011;63749;49.186;9.222;2023-12-07T02:35:34;38.45;;;14.40;;
75169;SDS011;63749;49.186;9.222;2023-12-07T02:38:01;39.63;;;14.67;;
75169;SDS011;63749;49.186;9.222;2023-12-07T02:40:27;39.00;;;15.05;;
75169;SDS011;63749;49.186;9.222;2023-12-07T02:42:53;38.00;;;14.48;;
75169;SDS011;63749;49.186;9.222;2023-12-07T02:45:19;41.05;;;14.45;;
75169;SDS011;63749;49.186;9.222;2023-12-07T02:47:45;38.57;;;14.73;;
75169;SDS011;63749;49.186;9.222;2023-12-07T02:50:11;38.92;;;15.10;;
75169;SDS011;63749;49.186;9.222;2023-12-07T02:52:37;35.00;;;13.80;;
75169;SDS011;63749;49.186;9.222;2023-12-07T02:55:03;35.30;;;14.27;;
75169;SDS011;63749;49.186;9.222;2023-12-07T02:57:29;36.80;;;15.05;;
75169;SDS011;63749;49.186;9.222;2023-12-07T02:59:55;38.23;;;14.60;;
75169;SDS011;63749;49.186;9.222;2023-12-07T03:02:21;36.05;;;14.23;;
75169;SDS011;63749;49.186;9.222;2023-12-07T03:04:46;32.80;;;13.27;;
75169;SDS011;63749;49.186;9.222;2023-12-07T03:07:12;37.97;;;14.05;;
75169;SDS011;63749;49.186;9.222;2023-12-07T03:09:37;38.33;;;14.60;;
75169;SDS011;63749;49.186;9.222;2023-12-07T03:12:03;38.33;;;15.17;;
75169;SDS011;63749;49.186;9.222;2023-12-07T03:14:28;33.85;;;13.23;;
75169;SDS011;63749;49.186;9.222;2023-12-07T03:16:54;36.87;;;14.60;;
75169;SDS011;63749;49.186;9.222;2023-12-07T03:19:19;38.50;;;15.60;;
75169;SDS011;63749;49.186;9.222;2023-12-07T03:21:44;34.40;;;14.37;;
75169;SDS011;63749;49.186;9.222;2023-12-07T03:24:10;34.97;;;14.48;;
75169;SDS011;63749;49.186;9.222;2023-12-07T03:26:36;35.37;;;13.83;;
75169;SDS011;63749;49.186;9.222;2023-12-07T03:29:01;42.17;;;15.07;;
75169;SDS011;63749;49.186;9.222;2023-12-07T03:31:27;38.03;;;14.13;;
75169;SDS011;63749;49.186;9.222;2023-12-07T03:33:53;41.05;;;15.30;;
75169;SDS011;63749;49.186;9.222;2023-12-07T03:36:22;37.07;;;13.90;;
75169;SDS011;63749;49.186;9.222;2023-12-07T03:38:48;43.60;;;14.80;;
75169;SDS011;63749;49.186;9.222;2023-12-07T03:41:14;44.13;;;15.15;;
75169;SDS011;63749;49.186;9.222;2023-12-07T03:43:39;36.93;;;14.77;;
75169;SDS011;63749;49.186;9.222;2023-12-07T03:46:05;40.10;;;14.67;;
75169;SDS011;63749;49.186;9.222;2023-12-07T03:48:31;42.78;;;14.95;;
75169;SDS011;63749;49.186;9.222;2023-12-07T03:50:58;44.15;;;16.08;;
75169;SDS011;63749;49.186;9.222;2023-12-07T03:53:24;41.63;;;15.70;;
75169;SDS011;63749;49.186;9.222;2023-12-07T03:55:49;38.92;;;15.18;;
75169;SDS011;63749;49.186;9.222;2023-12-07T03:58:14;40.53;;;15.03;;
75169;SDS011;63749;49.186;9.222;2023-12-07T04:00:40;43.43;;;14.97;;
75169;SDS011;63749;49.186;9.222;2023-12-07T04:03:06;43.83;;;15.32;;
75169;SDS011;63749;49.186;9.222;2023-12-07T04:05:32;38.47;;;14.27;;
75169;SDS011;63749;49.186;9.222;2023-12-07T04:07:58;41.30;;;15.25;;
75169;SDS011;63749;49.186;9.222;2023-12-07T04:10:23;41.43;;;15.07;;
75169;SDS011;63749;49.186;9.222;2023-12-07T04:12:49;42.42;;;14.88;;
75169;SDS011;63749;49.186;9.222;2023-12-07T04:15:14;45.53;;;14.73;;
75169;SDS011;63749;49.186;9.222;2023-12-07T04:17:39;42.67;;;15.30;;
75169;SDS011;63749;49.186;9.222;2023-12-07T04:20:05;42.33;;;14.63;;
75169;SDS011;63749;49.186;9.222;2023-12-07T04:22:32;45.97;;;15.20;;
75169;SDS011;63749;49.186;9.222;2023-12-07T04:24:57;37.00;;;14.53;;
75169;SDS011;63749;49.186;9.222;2023-12-07T04:27:23;41.10;;;14.93;;
75169;SDS011;63749;49.186;9.222;2023-12-07T04:29:48;43.43;;;15.17;;
75169;SDS011;63749;49.186;9.222;2023-12-07T04:32:13;38.87;;;14.90;;
75169;SDS011;63749;49.186;9.222;2023-12-07T04:34:39;40.67;;;15.55;;
75169;SDS011;63749;49.186;9.222;2023-12-07T04:37:04;38.67;;;14.47;;
75169;SDS011;63749;49.186;9.222;2023-12-07T04:39:29;45.80;;;14.80;;
75169;SDS011;63749;49.186;9.222;2023-12-07T04:41:55;42.27;;;14.37;;
75169;SDS011;63749;49.186;9.222;2023-12-07T04:44:20;44.40;;;15.17;;
75169;SDS011;63749;49.186;9.222;2023-12-07T04:46:45;43.10;;;15.23;;
75169;SDS011;63749;49.186;9.222;2023-12-07T04:49:11;38.55;;;14.20;;
75169;SDS011;63749;49.186;9.222;2023-12-07T04:51:36;36.77;;;14.03;;
75169;SDS011;63749;49.186;9.222;2023-12-07T04:54:02;42.47;;;14.60;;
75169;SDS011;63749;49.186;9.222;2023-12-07T04:56:27;44.13;;;14.83;;
75169;SDS011;63749;49.186;9.222;2023-12-07T04:58:52;41.80;;;14.80;;
75169;SDS011;63749;49.186;9.222;2023-12-07T05:01:18;43.30;;;15.33;;
75169;SDS011;63749;49.186;9.222;2023-12-07T05:03:46;50.47;;;15.77;;
75169;SDS011;63749;49.186;9.222;2023-12-07T05:06:12;48.30;;;16.75;;
75169;SDS011;63749;49.186;9.222;2023-12-07T05:08:39;53.03;;;16.60;;
75169;SDS011;63749;49.186;9.222;2023-12-07T05:11:04;51.33;;;16.83;;
75169;SDS011;63749;49.186;9.222;2023-12-07T05:13:31;46.97;;;15.98;;
75169;SDS011;63749;49.186;9.222;2023-12-07T05:15:58;47.63;;;16.00;;
75169;SDS011;63749;49.186;9.222;2023-12-07T05:18:24;52.78;;;16.50;;
75169;SDS011;63749;49.186;9.222;2023-12-07T05:20:50;54.38;;;16.98;;
75169;SDS011;63749;49.186;9.222;2023-12-07T05:23:15;48.53;;;16.40;;
75169;SDS011;63749;49.186;9.222;2023-12-07T05:25:41;43.57;;;15.83;;
75169;SDS011;63749;49.186;9.222;2023-12-07T05:28:06;48.93;;;15.70;;
75169;SDS011;63749;49.186;9.222;2023-12-07T05:30:31;52.17;;;16.67;;
75169;SDS011;63749;49.186;9.222;2023-12-07T05:32:57;59.63;;;17.50;;
75169;SDS011;63749;49.186;9.222;2023-12-07T05:35:22;55.17;;;17.03;;
75169;SDS011;63749;49.186;9.222;2023-12-07T05:37:48;52.97;;;16.80;;
75169;SDS011;63749;49.186;9.222;2023-12-07T05:40:14;57.40;;;17.98;;
75169;SDS011;63749;49.186;9.222;2023-12-07T05:42:41;61.45;;;18.40;;
75169;SDS011;63749;49.186;9.222;2023-12-07T05:45:06;63.83;;;19.03;;
75169;SDS011;63749;49.186;9.222;2023-12-07T05:47:32;65.32;;;19.23;;
75169;SDS011;63749;49.186;9.222;2023-12-07T05:49:57;61.33;;;18.67;;
75169;SDS011;63749;49.186;9.222;2023-12-07T05:52:24;63.92;;;19.02;;
75169;SDS011;63749;49.186;9.222;2023-12-07T05:54:50;68.93;;;19.13;;
75169;SDS011;63749;49.186;9.222;2023-12-07T05:57:15;70.93;;;19.63;;
75169;SDS011;63749;49.186;9.222;2023-12-07T05:59:41;63.73;;;19.73;;
75169;SDS011;63749;49.186;9.222;2023-12-07T06:02:08;68.53;;;20.17;;
75169;SDS011;63749;49.186;9.222;2023-12-07T06:04:33;64.97;;;19.13;;
75169;SDS011;63749;49.186;9.222;2023-12-07T06:06:58;65.57;;;20.13;;
75169;SDS011;63749;49.186;9.222;2023-12-07T06:09:24;67.63;;;19.80;;
75169;SDS011;63749;49.186;9.222;2023-12-07T06:11:49;69.30;;;21.30;;
75169;SDS011;63749;49.186;9.222;2023-12-07T06:14:15;73.53;;;21.10;;
75169;SDS011;63749;49.186;9.222;2023-12-07T06:16:40;86.53;;;21.53;;
75169;SDS011;63749;49.186;9.222;2023-12-07T06:19:05;67.20;;;20.43;;
75169;SDS011;63749;49.186;9.222;2023-12-07T06:21:31;72.60;;;20.80;;
75169;SDS011;63749;49.186;9.222;2023-12-07T06:23:56;69.13;;;20.27;;
75169;SDS011;63749;49.186;9.222;2023-12-07T06:26:23;66.30;;;20.17;;
75169;SDS011;63749;49.186;9.222;2023-12-07T06:28:49;66.47;;;20.47;;
75169;SDS011;63749;49.186;9.222;2023-12-07T06:31:15;81.07;;;22.63;;
75169;SDS011;63749;49.186;9.222;2023-12-07T06:33:41;78.93;;;21.63;;
75169;SDS011;63749;49.186;9.222;2023-12-07T06:36:06;77.38;;;21.80;;
75169;SDS011;63749;49.186;9.222;2023-12-07T06:38:32;68.60;;;21.07;;
75169;SDS011;63749;49.186;9.222;2023-12-07T06:40:57;73.17;;;20.97;;
75169;SDS011;63749;49.186;9.222;2023-12-07T06:43:23;77.80;;;20.98;;
75169;SDS011;63749;49.186;9.222;2023-12-07T06:45:48;73.33;;;20.07;;
75169;SDS011;63749;49.186;9.222;2023-12-07T06:48:13;74.23;;;20.67;;
75169;SDS011;63749;49.186;9.222;2023-12-07T06:50:39;66.50;;;19.53;;
75169;SDS011;63749;49.186;9.222;2023-12-07T06:53:04;68.27;;;19.83;;
75169;SDS011;63749;49.186;9.222;2023-12-07T06:55:30;73.43;;;20.83;;
75169;SDS011;63749;49.186;9.222;2023-12-07T06:57:55;70.17;;;19.33;;
75169;SDS011;63749;49.186;9.222;2023-12-07T07:00:21;75.23;;;19.57;;
75169;SDS011;63749;49.186;9.222;2023-12-07T07:02:46;67.63;;;18.55;;
75169;SDS011;63749;49.186;9.222;2023-12-07T07:05:12;63.83;;;20.13;;
75169;SDS011;63749;49.186;9.222;2023-12-07T07:07:37;74.37;;;20.47;;
75169;SDS011;63749;49.186;9.222;2023-12-07T07:10:03;73.30;;;20.47;;
75169;SDS011;63749;49.186;9.222;2023-12-07T07:12:29;67.78;;;20.13;;
75169;SDS011;63749;49.186;9.222;2023-12-07T07:14:55;72.00;;;20.93;;
75169;SDS011;63749;49.186;9.222;2023-12-07T07:17:20;68.82;;;22.35;;
75169;SDS011;63749;49.186;9.222;2023-12-07T07:19:45;76.50;;;21.73;;
75169;SDS011;63749;49.186;9.222;2023-12-07T07:22:11;71.03;;;20.67;;
75169;SDS011;63749;49.186;9.222;2023-12-07T07:24:36;60.40;;;20.17;;
75169;SDS011;63749;49.186;9.222;2023-12-07T07:27:01;72.30;;;20.70;;
75169;SDS011;63749;49.186;9.222;2023-12-07T07:29:27;72.35;;;20.85;;
75169;SDS011;63749;49.186;9.222;2023-12-07T07:31:53;71.80;;;20.67;;
75169;SDS011;63749;49.186;9.222;2023-12-07T07:34:18;64.77;;;20.87;;
75169;SDS011;63749;49.186;9.222;2023-12-07T07:36:44;65.30;;;20.15;;
75169;SDS011;63749;49.186;9.222;2023-12-07T07:39:09;74.57;;;20.30;;
75169;SDS011;63749;49.186;9.222;2023-12-07T07:41:36;71.68;;;21.55;;
75169;SDS011;63749;49.186;9.222;2023-12-07T07:44:01;73.03;;;20.53;;
75169;SDS011;63749;49.186;9.222;2023-12-07T07:46:27;76.32;;;21.23;;
75169;SDS011;63749;49.186;9.222;2023-12-07T07:48:53;69.60;;;20.80;;
75169;SDS011;63749;49.186;9.222;2023-12-07T07:51:18;70.60;;;22.17;;
75169;SDS011;63749;49.186;9.222;2023-12-07T07:53:44;67.63;;;21.97;;
75169;SDS011;63749;49.186;9.222;2023-12-07T07:56:09;65.00;;;21.08;;
75169;SDS011;63749;49.186;9.222;2023-12-07T07:58:34;63.60;;;21.93;;
75169;SDS011;63749;49.186;9.222;2023-12-07T08:01:00;67.07;;;22.17;;
75169;SDS011;63749;49.186;9.222;2023-12-07T08:03:25;66.87;;;23.10;;
75169;SDS011;63749;49.186;9.222;2023-12-07T08:05:50;63.40;;;21.37;;
75169;SDS011;63749;49.186;9.222;2023-12-07T08:08:16;65.97;;;21.47;;
75169;SDS011;63749;49.186;9.222;2023-12-07T08:10:41;60.93;;;20.50;;
75169;SDS011;63749;49.186;9.222;2023-12-07T08:13:06;56.17;;;19.85;;
75169;SDS011;63749;49.186;9.222;2023-12-07T08:15:32;52.20;;;20.13;;
75169;SDS011;63749;49.186;9.222;2023-12-07T08:17:58;53.15;;;19.85;;
75169;SDS011;63749;49.186;9.222;2023-12-07T08:20:24;52.60;;;19.17;;
75169;SDS011;63749;49.186;9.222;2023-12-07T08:22:49;52.20;;;20.48;;
75169;SDS011;63749;49.186;9.222;2023-12-07T08:25:15;45.10;;;18.57;;
75169;SDS011;63749;49.186;9.222;2023-12-07T08:27:42;53.83;;;20.10;;
75169;SDS011;63749;49.186;9.222;2023-12-07T08:30:09;58.05;;;21.10;;
75169;SDS011;63749;49.186;9.222;2023-12-07T08:32:34;57.27;;;21.17;;
75169;SDS011;63749;49.186;9.222;2023-12-07T08:35:00;53.83;;;20.58;;
75169;SDS011;63749;49.186;9.222;2023-12-07T08:37:26;51.90;;;20.20;;
75169;SDS011;63749;49.186;9.222;2023-12-07T08:39:51;52.27;;;20.20;;
75169;SDS011;63749;49.186;9.222;2023-12-07T08:42:16;59.93;;;19.17;;
75169;SDS011;63749;49.186;9.222;2023-12-07T08:44:42;58.23;;;19.60;;
75169;SDS011;63749;49.186;9.222;2023-12-07T08:47:08;53.85;;;19.25;;
75169;SDS011;63749;49.186;9.222;2023-12-07T08:49:33;56.17;;;20.93;;
75169;SDS011;63749;49.186;9.222;2023-12-07T08:51:58;58.47;;;18.53;;
75169;SDS011;63749;49.186;9.222;2023-12-07T08:54:24;49.42;;;17.60;;
75169;SDS011;63749;49.186;9.222;2023-12-07T08:56:49;41.80;;;16.63;;
75169;SDS011;63749;49.186;9.222;2023-12-07T08:59:14;42.20;;;17.33;;
75169;SDS011;63749;49.186;9.222;2023-12-07T09:01:40;38.73;;;16.90;;
75169;SDS011;63749;49.186;9.222;2023-12-07T09:04:05;43.53;;;18.03;;
75169;SDS011;63749;49.186;9.222;2023-12-07T09:06:31;44.35;;;18.25;;
75169;SDS011;63749;49.186;9.222;2023-12-07T09:08:56;44.47;;;18.13;;
75169;SDS011;63749;49.186;9.222;2023-12-07T09:11:22;48.43;;;18.50;;
75169;SDS011;63749;49.186;9.222;2023-12-07T09:13:47;47.40;;;17.98;;
75169;SDS011;63749;49.186;9.222;2023-12-07T09:16:13;45.87;;;18.20;;
75169;SDS011;63749;49.186;9.222;2023-12-07T09:18:40;53.53;;;19.75;;
75169;SDS011;63749;49.186;9.222;2023-12-07T09:21:06;54.90;;;21.67;;
75169;SDS011;63749;49.186;9.222;2023-12-07T09:23:31;54.27;;;20.63;;
75169;SDS011;63749;49.186;9.222;2023-12-07T09:25:57;49.17;;;19.70;;
75169;SDS011;63749;49.186;9.222;2023-12-07T09:28:22;46.30;;;19.07;;
75169;SDS011;63749;49.186;9.222;2023-12-07T09:30:48;49.75;;;19.25;;
75169;SDS011;63749;49.186;9.222;2023-12-07T09:33:14;47.33;;;18.67;;
75169;SDS011;63749;49.186;9.222;2023-12-07T09:35:39;44.03;;;18.23;;
75169;SDS011;63749;49.186;9.222;2023-12-07T09:38:04;45.17;;;18.37;;
75169;SDS011;63749;49.186;9.222;2023-12-07T09:40:30;39.13;;;17.92;;
75169;SDS011;63749;49.186;9.222;2023-12-07T09:42:55;39.50;;;17.63;;
75169;SDS011;63749;49.186;9.222;2023-12-07T09:45:21;41.40;;;18.07;;
75169;SDS011;63749;49.186;9.222;2023-12-07T09:47:47;39.63;;;17.15;;
75169;SDS011;63749;49.186;9.222;2023-12-07T09:50:15;39.83;;;16.73;;
75169;SDS011;63749;49.186;9.222;2023-12-07T09:52:48;40.40;;;17.02;;
75169;SDS011;63749;49.186;9.222;2023-12-07T09:55:16;39.90;;;17.13;;
75169;SDS011;63749;49.186;9.222;2023-12-07T09:57:42;39.65;;;16.55;;
75169;SDS011;63749;49.186;9.222;2023-12-07T10:00:07;36.40;;;16.13;;
75169;SDS011;63749;49.186;9.222;2023-12-07T10:02:38;37.53;;;16.33;;
75169;SDS011;63749;49.186;9.222;2023-12-07T10:05:07;36.50;;;16.52;;
75169;SDS011;63749;49.186;9.222;2023-12-07T10:07:35;36.97;;;16.83;;
75169;SDS011;63749;49.186;9.222;2023-12-07T10:10:02;40.28;;;17.30;;
75169;SDS011;63749;49.186;9.222;2023-12-07T10:12:29;38.47;;;17.05;;
75169;SDS011;63749;49.186;9.222;2023-12-07T10:14:55;42.63;;;17.00;;
75169;SDS011;63749;49.186;9.222;2023-12-07T10:17:20;37.60;;;16.87;;
75169;SDS011;63749;49.186;9.222;2023-12-07T10:19:46;34.70;;;16.53;;
75169;SDS011;63749;49.186;9.222;2023-12-07T10:22:14;35.50;;;16.20;;
75169;SDS011;63749;49.186;9.222;2023-12-07T10:24:40;32.58;;;15.45;;
75169;SDS011;63749;49.186;9.222;2023-12-07T10:27:06;34.10;;;14.52;;
75169;SDS011;63749;49.186;9.222;2023-12-07T10:29:37;40.83;;;15.10;;
75169;SDS011;63749;49.186;9.222;2023-12-07T10:32:03;38.50;;;15.85;;
75169;SDS011;63749;49.186;9.222;2023-12-07T10:34:30;34.53;;;15.05;;
75169;SDS011;63749;49.186;9.222;2023-12-07T10:36:55;34.80;;;15.25;;
75169;SDS011;63749;49.186;9.222;2023-12-07T10:39:23;30.87;;;14.63;;
75169;SDS011;63749;49.186;9.222;2023-12-07T10:41:49;34.85;;;15.07;;
75169;SDS011;63749;49.186;9.222;2023-12-07T10:44:19;34.55;;;15.15;;
75169;SDS011;63749;49.186;9.222;2023-12-07T10:46:45;28.67;;;14.73;;
75169;SDS011;63749;49.186;9.222;2023-12-07T10:49:14;30.63;;;15.35;;
75169;SDS011;63749;49.186;9.222;2023-12-07T10:51:56;31.67;;;14.73;;
75169;SDS011;63749;49.186;9.222;2023-12-07T10:54:25;33.95;;;14.98;;
75169;SDS011;63749;49.186;9.222;2023-12-07T10:57:14;29.35;;;14.18;;
75169;SDS011;63749;49.186;9.222;2023-12-07T10:59:41;31.97;;;14.33;;
75169;SDS011;63749;49.186;9.222;2023-12-07T11:02:08;30.48;;;14.40;;
75169;SDS011;63749;49.186;9.222;2023-12-07T11:04:37;29.00;;;14.63;;
75169;SDS011;63749;49.186;9.222;2023-12-07T11:07:07;28.92;;;14.13;;
75169;SDS011;63749;49.186;9.222;2023-12-07T11:09:38;31.13;;;14.35;;
75169;SDS011;63749;49.186;9.222;2023-12-07T11:14:45;33.20;;;14.43;;
75169;SDS011;63749;49.186;9.222;2023-12-07T11:17:11;30.80;;;14.63;;
75169;SDS011;63749;49.186;9.222;2023-12-07T11:22:02;30.07;;;14.50;;
75169;SDS011;63749;49.186;9.222;2023-12-07T11:24:29;29.30;;;14.05;;
75169;SDS011;63749;49.186;9.222;2023-12-07T11:26:54;26.13;;;12.87;;
75169;SDS011;63749;49.186;9.222;2023-12-07T11:29:29;28.42;;;14.50;;
75169;SDS011;63749;49.186;9.222;2023-12-07T11:31:56;24.90;;;12.50;;
75169;SDS011;63749;49.186;9.222;2023-12-07T11:34:36;28.20;;;13.60;;
75169;SDS011;63749;49.186;9.222;2023-12-07T11:37:02;25.27;;;12.75;;
75169;SDS011;63749;49.186;9.222;2023-12-07T11:39:28;23.27;;;11.20;;
75169;SDS011;63749;49.186;9.222;2023-12-07T11:41:54;20.05;;;11.07;;
75169;SDS011;63749;49.186;9.222;2023-12-07T11:44:24;21.00;;;10.77;;
75169;SDS011;63749;49.186;9.222;2023-12-07T11:46:57;21.20;;;10.57;;
75169;SDS011;63749;49.186;9.222;2023-12-07T11:49:23;21.10;;;10.43;;
75169;SDS011;63749;49.186;9.222;2023-12-07T11:51:48;20.60;;;10.33;;
75169;SDS011;63749;49.186;9.222;2023-12-07T11:54:14;20.15;;;9.95;;
75169;SDS011;63749;49.186;9.222;2023-12-07T11:56:40;21.07;;;11.17;;
75169;SDS011;63749;49.186;9.222;2023-12-07T11:59:06;24.05;;;12.00;;
75169;SDS011;63749;49.186;9.222;2023-12-07T12:01:31;22.00;;;10.87;;
75169;SDS011;63749;49.186;9.222;2023-12-07T12:03:58;26.55;;;12.23;;
75169;SDS011;63749;49.186;9.222;2023-12-07T12:06:24;26.95;;;11.70;;
75169;SDS011;63749;49.186;9.222;2023-12-07T12:08:49;22.33;;;10.77;;
75169;SDS011;63749;49.186;9.222;2023-12-07T12:11:15;21.50;;;10.73;;
75169;SDS011;63749;49.186;9.222;2023-12-07T12:13:40;21.63;;;11.45;;
75169;SDS011;63749;49.186;9.222;2023-12-07T12:16:06;20.77;;;10.90;;
75169;SDS011;63749;49.186;9.222;2023-12-07T12:18:32;24.83;;;11.30;;
75169;SDS011;63749;49.186;9.222;2023-12-07T12:20:58;22.20;;;10.23;;
75169;SDS011;63749;49.186;9.222;2023-12-07T12:23:24;21.60;;;9.43;;
75169;SDS011;63749;49.186;9.222;2023-12-07T12:25:49;19.67;;;10.07;;
75169;SDS011;63749;49.186;9.222;2023-12-07T12:28:16;18.73;;;9.30;;
75169;SDS011;63749;49.186;9.222;2023-12-07T12:30:47;18.90;;;9.18;;
75169;SDS011;63749;49.186;9.222;2023-12-07T12:33:13;24.70;;;8.77;;
75169;SDS011;63749;49.186;9.222;2023-12-07T12:35:39;17.35;;;8.40;;
75169;SDS011;63749;49.186;9.222;2023-12-07T12:38:08;16.70;;;9.03;;
75169;SDS011;63749;49.186;9.222;2023-12-07T12:40:38;16.92;;;8.10;;
75169;SDS011;63749;49.186;9.222;2023-12-07T12:43:03;15.05;;;7.68;;
75169;SDS011;63749;49.186;9.222;2023-12-07T12:45:30;18.27;;;8.03;;
75169;SDS011;63749;49.186;9.222;2023-12-07T12:47:55;17.63;;;8.18;;
75169;SDS011;63749;49.186;9.222;2023-12-07T12:53:06;13.57;;;7.50;;
75169;SDS011;63749;49.186;9.222;2023-12-07T12:55:33;17.42;;;7.60;;
75169;SDS011;63749;49.186;9.222;2023-12-07T12:58:00;14.10;;;7.25;;
75169;SDS011;63749;49.186;9.222;2023-12-07T13:00:26;15.43;;;7.10;;
75169;SDS011;63749;49.186;9.222;2023-12-07T13:02:51;13.33;;;7.23;;
75169;SDS011;63749;49.186;9.222;2023-12-07T13:05:17;12.57;;;6.83;;
75169;SDS011;63749;49.186;9.222;2023-12-07T13:07:43;12.93;;;6.73;;
75169;SDS011;63749;49.186;9.222;2023-12-07T13:10:09;14.18;;;7.07;;
75169;SDS011;63749;49.186;9.222;2023-12-07T13:12:35;11.77;;;6.63;;
75169;SDS011;63749;49.186;9.222;2023-12-07T13:15:01;12.93;;;6.23;;
75169;SDS011;63749;49.186;9.222;2023-12-07T13:17:26;11.43;;;6.00;;
75169;SDS011;63749;49.186;9.222;2023-12-07T13:19:52;10.73;;;6.17;;
75169;SDS011;63749;49.186;9.222;2023-12-07T13:22:17;11.70;;;6.27;;
75169;SDS011;63749;49.186;9.222;2023-12-07T13:24:43;12.20;;;6.28;;
75169;SDS011;63749;49.186;9.222;2023-12-07T13:27:08;9.60;;;5.90;;
75169;SDS011;63749;49.186;9.222;2023-12-07T13:29:33;11.63;;;6.33;;
75169;SDS011;63749;49.186;9.222;2023-12-07T13:31:59;11.53;;;6.20;;
75169;SDS011;63749;49.186;9.222;2023-12-07T13:34:24;11.20;;;6.30;;
75169;SDS011;63749;49.186;9.222;2023-12-07T13:36:51;8.63;;;5.20;;
75169;SDS011;63749;49.186;9.222;2023-12-07T13:39:16;12.02;;;5.30;;
75169;SDS011;63749;49.186;9.222;2023-12-07T13:41:45;11.63;;;6.18;;
75169;SDS011;63749;49.186;9.222;2023-12-07T13:44:12;12.00;;;6.47;;
75169;SDS011;63749;49.186;9.222;2023-12-07T13:46:38;10.27;;;5.30;;
75169;SDS011;63749;49.186;9.222;2023-12-07T13:49:03;11.37;;;5.63;;
75169;SDS011;63749;49.186;9.222;2023-12-07T13:51:29;10.20;;;5.70;;
75169;SDS011;63749;49.186;9.222;2023-12-07T13:53:54;9.73;;;5.40;;
75169;SDS011;63749;49.186;9.222;2023-12-07T13:56:21;9.15;;;5.30;;
75169;SDS011;63749;49.186;9.222;2023-12-07T13:58:48;9.25;;;4.93;;
75169;SDS011;63749;49.186;9.222;2023-12-07T14:01:14;10.83;;;6.10;;
75169;SDS011;63749;49.186;9.222;2023-12-07T14:03:40;10.00;;;5.57;;
75169;SDS011;63749;49.186;9.222;2023-12-07T14:06:05;8.57;;;5.50;;
75169;SDS011;63749;49.186;9.222;2023-12-07T14:08:31;9.50;;;5.63;;
75169;SDS011;63749;49.186;9.222;2023-12-07T14:10:57;10.90;;;5.67;;
75169;SDS011;63749;49.186;9.222;2023-12-07T14:13:22;8.40;;;5.20;;
75169;SDS011;63749;49.186;9.222;2023-12-07T14:15:49;9.60;;;5.20;;
75169;SDS011;63749;49.186;9.222;2023-12-07T14:18:14;10.33;;;5.40;;
75169;SDS011;63749;49.186;9.222;2023-12-07T14:20:42;9.50;;;5.50;;
75169;SDS011;63749;49.186;9.222;2023-12-07T14:23:08;9.43;;;5.63;;
75169;SDS011;63749;49.186;9.222;2023-12-07T14:25:34;9.10;;;5.30;;
75169;SDS011;63749;49.186;9.222;2023-12-07T14:27:59;7.60;;;4.70;;